KTEB/TEB METAR and TAF weather

Enter ICAO airport designator
Station Type Date Time Source
KTEB METAR 2022/12/08 11:51 UTC NOAA

KTEB 081151Z 33005KT 10SM CLR 08/04 A3020 RMK AO2 SLP227 70003 T00830044 10117 20083 53019


Station Type Date Time Source
KTEB Decoded METAR 2022/12/08 11:51 UTC NOAA

TETERBORO AIRPORT, NJ, United States (KTEB) 40-52N 74-03W 7M
Dec 08, 2022 - 06:51 AM EST / 2022.12.08 1151 UTC
Wind: from the NNW (330 degrees) at 6 MPH (5 KT):0
Visibility: 10 mile(s):0
Sky conditions: clear
Temperature: 46.9 F (8.3 C)
Dew Point: 39.9 F (4.4 C)
Relative Humidity: 76%
Pressure (altimeter): 30.2 in. Hg (1022 hPa)
Pressure tendency: 0.06 inches (1.9 hPa) higher than three hours ago
ob: KTEB 081151Z 33005KT 10SM CLR 08/04 A3020 RMK AO2 SLP227 70003 T00830044 10117 20083 53019
cycle: 12

Station Type Date Time Source
KTEB TAF 2022/12/08 12:22 UTC NOAA

TAF KTEB 081120Z 0812/0918 33007KT P6SM FEW020 SCT250
FM081400 33011G18KT P6SM SCT035 SCT250
FM082100 33010KT P6SM FEW035 SCT250
FM090300 35007KT P6SM SCT250
FM091300 35010KT P6SM SKC

Example: see airport list